Time;durP1;ratioP1;P1;durP2;ratioP2;P2;SDS_P1;SDS_P2;PMS_P1;PMS_P2;Temp;Humidity;BMP_temperature;BMP_pressure;BME280_temperature;BME280_humidity;BME280_pressure;Samples;Min_cycle;Max_cycle;Signal;HPM_P1;HPM_P2
2021/01/27 00:03:43;;;;;;;12.03;9.33;;;;;;;3.27;98.10;99258.94;1817587;78;21726;-82
2021/01/27 00:06:50;;;;;;;11.78;10.10;;;;;;;3.21;98.26;99284.73;1818540;79;21298;-83
2021/01/27 00:09:56;;;;;;;11.53;9.25;;;;;;;3.19;98.38;99287.23;1818279;79;21287;-78
2021/01/27 00:13:04;;;;;;;14.07;7.72;;;;;;;3.19;98.50;99293.98;1817978;79;21184;-81
2021/01/27 00:16:10;;;;;;;8.43;7.10;;;;;;;3.21;98.64;99282.03;1818533;79;21941;-82
2021/01/27 00:19:16;;;;;;;9.38;7.22;;;;;;;3.21;98.65;99263.11;1816879;79;21342;-82
2021/01/27 00:22:25;;;;;;;11.68;8.15;;;;;;;3.20;98.68;99260.55;1818301;79;21220;-81
2021/01/27 00:29:33;;;;;;;8.70;6.62;;;;;;;3.22;98.73;99261.25;1818387;79;21157;-82
2021/01/27 00:32:33;;;;;;;10.60;6.87;;;;;;;3.19;98.65;99247.53;1795833;79;21291;-82
2021/01/27 00:35:45;;;;;;;8.20;6.53;;;;;;;3.13;98.52;99248.16;1770438;81;21287;-78
2021/01/27 00:38:50;;;;;;;5.90;5.22;;;;;;;3.09;98.45;99234.61;1771958;81;21265;-82
2021/01/27 00:42:51;;;;;;;7.28;5.33;;;;;;;3.05;98.43;99254.84;1772004;81;21264;-78
2021/01/27 00:46:32;;;;;;;9.33;7.12;;;;;;;3.03;98.47;99243.34;1771569;81;21137;-78
2021/01/27 00:50:04;;;;;;;7.90;6.15;;;;;;;2.97;98.54;99229.96;1771497;81;21925;-77
2021/01/27 00:53:13;;;;;;;10.38;5.75;;;;;;;2.95;98.68;99221.14;1770681;81;21837;-77
2021/01/27 00:56:21;;;;;;;8.13;5.87;;;;;;;2.96;98.84;99206.63;1771325;81;21196;-82
2021/01/27 01:04:13;;;;;;;8.03;5.80;;;;;;;2.83;98.77;99212.94;1771440;81;21743;-82
2021/01/27 01:07:21;;;;;;;8.28;6.08;;;;;;;2.73;98.94;99207.61;1771248;81;21941;-82
2021/01/27 01:11:24;;;;;;;6.37;4.72;;;;;;;2.74;99.27;99207.95;1771453;81;21623;-80
2021/01/27 01:20:15;;;;;;;7.30;6.00;;;;;;;2.68;99.80;99196.42;1771333;81;21671;-82
2021/01/27 01:23:50;;;;;;;6.00;4.80;;;;;;;2.58;100.00;99168.62;1770809;81;21177;-79
2021/01/27 01:32:04;;;;;;;6.65;5.25;;;;;;;2.52;100.00;99169.23;1771399;81;21165;-79
2021/01/27 01:35:10;;;;;;;6.53;5.10;;;;;;;2.44;100.00;99144.85;1801809;79;21165;-82
2021/01/27 01:38:50;;;;;;;5.05;3.77;;;;;;;2.40;100.00;99148.38;1801974;79;21200;-79
2021/01/27 01:42:14;;;;;;;6.10;5.05;;;;;;;2.39;100.00;99135.86;1802034;79;21782;-79
2021/01/27 01:50:47;;;;;;;4.78;4.10;;;;;;;2.29;100.00;99131.89;1730923;82;21646;-79
2021/01/27 01:54:02;;;;;;;5.67;4.30;;;;;;;2.28;100.00;99119.91;1800111;79;21157;-81
2021/01/27 01:58:24;;;;;;;8.38;6.87;;;;;;;2.28;100.00;99118.55;1800215;79;21604;-83
2021/01/27 02:01:30;;;;;;;6.55;5.60;;;;;;;2.24;100.00;99118.00;1801773;79;21311;-80
2021/01/27 02:05:10;;;;;;;4.62;3.77;;;;;;;2.24;100.00;99121.20;1801768;79;21161;-79
2021/01/27 02:08:18;;;;;;;4.60;4.12;;;;;;;2.25;100.00;99129.64;1801920;79;21191;-79
2021/01/27 02:11:24;;;;;;;4.55;4.15;;;;;;;2.22;100.00;99124.06;1802002;79;21297;-78
2021/01/27 02:25:45;;;;;;;5.85;5.08;;;;;;;2.19;100.00;99117.61;1801837;79;21243;-78
2021/01/27 02:29:17;;;;;;;3.95;3.15;;;;;;;2.16;100.00;99118.41;1800779;79;21228;-78
2021/01/27 02:42:01;;;;;;;4.95;4.40;;;;;;;2.26;100.00;99109.78;1720790;83;21151;-82
2021/01/27 02:45:17;;;;;;;4.05;3.72;;;;;;;2.23;100.00;99106.02;1721882;83;21716;-79
2021/01/27 02:48:29;;;;;;;5.03;4.10;;;;;;;2.19;100.00;99105.98;1721826;83;21326;-82
2021/01/27 02:51:57;;;;;;;5.67;3.98;;;;;;;2.23;100.00;99103.33;1721830;83;21302;-82
2021/01/27 02:55:30;;;;;;;4.40;3.95;;;;;;;2.25;100.00;99098.61;1721980;83;21179;-83
2021/01/27 02:58:51;;;;;;;5.42;4.12;;;;;;;2.22;100.00;99093.55;1721941;83;21256;-82
2021/01/27 03:02:13;;;;;;;4.58;3.50;;;;;;;2.22;100.00;99090.84;1721856;83;21281;-83
2021/01/27 03:05:40;;;;;;;4.30;3.70;;;;;;;2.21;100.00;99096.75;1755543;81;21750;-78
2021/01/27 03:08:54;;;;;;;9.45;8.45;;;;;;;2.22;100.00;99091.69;1771338;81;21209;-83
2021/01/27 03:12:00;;;;;;;5.42;4.75;;;;;;;2.19;100.00;99097.38;1771558;81;21173;-82
2021/01/27 03:15:07;;;;;;;6.87;5.67;;;;;;;2.16;100.00;99086.88;1769869;81;21170;-82
2021/01/27 03:18:17;;;;;;;4.83;3.98;;;;;;;2.13;100.00;99085.86;1771332;81;21209;-78
2021/01/27 03:21:25;;;;;;;6.22;4.62;;;;;;;2.11;100.00;99087.00;1771255;81;21699;-82
2021/01/27 03:24:31;;;;;;;5.15;4.65;;;;;;;2.14;100.00;99083.50;1771342;81;21259;-78
2021/01/27 03:27:40;;;;;;;5.90;5.37;;;;;;;2.11;100.00;99077.05;1771421;81;21173;-79
2021/01/27 03:30:44;;;;;;;6.97;5.05;;;;;;;2.12;100.00;99078.77;1771425;81;21189;-82
2021/01/27 03:33:57;;;;;;;4.28;3.87;;;;;;;2.10;100.00;99056.98;1771243;81;21803;-83
2021/01/27 03:37:12;;;;;;;3.52;2.75;;;;;;;2.08;100.00;99057.14;1771903;80;21303;-82
2021/01/27 03:40:20;;;;;;;3.70;3.35;;;;;;;2.11;100.00;99054.13;1771461;81;21161;-79
2021/01/27 03:43:36;;;;;;;6.58;5.97;;;;;;;2.17;100.00;99058.92;1771436;81;21200;-78
2021/01/27 03:47:12;;;;;;;5.30;4.80;;;;;;;2.22;100.00;99055.27;1771387;81;21137;-78
2021/01/27 03:50:24;;;;;;;3.95;3.55;;;;;;;2.27;100.00;99050.76;1771333;81;21189;-83
2021/01/27 03:53:30;;;;;;;4.00;3.60;;;;;;;2.29;100.00;99048.73;1771325;81;21292;-83
2021/01/27 03:56:55;;;;;;;5.00;4.50;;;;;;;2.29;100.00;99051.44;1771278;81;21181;-83
2021/01/27 03:59:59;;;;;;;4.72;4.28;;;;;;;2.32;100.00;99046.25;1754197;81;21691;-81
2021/01/27 04:03:13;;;;;;;3.87;3.47;;;;;;;2.33;100.00;99043.89;1770771;81;22320;-77
2021/01/27 04:06:20;;;;;;;3.02;2.75;;;;;;;2.35;100.00;99040.52;1771246;81;21276;-81
2021/01/27 04:09:26;;;;;;;2.17;2.00;;;;;;;2.36;100.00;99036.84;1769865;81;21881;-80
2021/01/27 04:12:31;;;;;;;4.25;3.85;;;;;;;2.37;100.00;99028.59;1771086;81;21200;-79
2021/01/27 04:15:37;;;;;;;4.62;4.20;;;;;;;2.37;100.00;99031.78;1770011;81;21193;-81
2021/01/27 04:18:44;;;;;;;2.52;2.33;;;;;;;2.38;100.00;99037.52;1770255;81;21332;-77
2021/01/27 04:21:50;;;;;;;3.72;3.37;;;;;;;2.37;100.00;99030.44;1771246;81;21165;-80
2021/01/27 04:24:56;;;;;;;5.75;3.87;;;;;;;2.38;100.00;99034.32;1770597;81;21319;-81
2021/01/27 04:28:01;;;;;;;6.17;4.83;;;;;;;2.43;100.00;99025.25;1770700;81;21244;-81
2021/01/27 04:31:07;;;;;;;2.47;2.27;;;;;;;2.46;100.00;99024.11;1771309;81;21367;-80
2021/01/27 04:34:12;;;;;;;1.98;1.80;;;;;;;2.46;100.00;99021.41;1770027;81;21824;-80
2021/01/27 04:37:17;;;;;;;2.52;2.00;;;;;;;2.50;100.00;99016.89;1772427;78;21264;-77
2021/01/27 04:40:32;;;;;;;2.20;1.72;;;;;;;2.54;100.00;99017.41;1769717;81;21268;-77
2021/01/27 04:43:50;;;;;;;3.17;2.50;;;;;;;2.55;100.00;99001.08;1770021;81;21264;-77
2021/01/27 04:47:22;;;;;;;2.47;2.27;;;;;;;2.59;100.00;98998.91;1746746;81;21244;-78
2021/01/27 04:50:47;;;;;;;5.30;3.47;;;;;;;2.60;100.00;98996.55;1745982;82;21233;-76
2021/01/27 04:54:12;;;;;;;5.62;3.90;;;;;;;2.63;100.00;98990.81;1759738;81;21181;-80
2021/01/27 04:57:28;;;;;;;5.53;3.98;;;;;;;2.66;100.00;98987.81;1684219;85;21276;-80
2021/01/27 05:00:57;;;;;;;4.10;3.30;;;;;;;2.71;100.00;98980.59;1665234;85;21186;-80
2021/01/27 05:04:13;;;;;;;5.92;4.28;;;;;;;2.73;100.00;98979.44;1690503;85;21936;-79
2021/01/27 05:07:21;;;;;;;5.25;3.35;;;;;;;2.81;100.00;98983.52;1690534;85;21324;-78
2021/01/27 05:10:31;;;;;;;4.15;3.60;;;;;;;2.82;100.00;98974.91;1690954;83;21289;-78
2021/01/27 05:13:42;;;;;;;5.25;3.90;;;;;;;2.85;100.00;98975.11;1690408;85;21335;-78
2021/01/27 05:16:48;;;;;;;4.00;3.50;;;;;;;2.83;100.00;98973.09;1690565;85;21304;-80
2021/01/27 05:19:55;;;;;;;5.70;2.70;;;;;;;2.81;100.00;98967.31;1690610;85;21189;-80
2021/01/27 05:23:01;;;;;;;5.92;3.12;;;;;;;2.81;100.00;98965.97;1712279;83;21315;-79
2021/01/27 05:26:16;;;;;;;7.03;3.83;;;;;;;2.78;100.00;98969.00;1717921;83;21289;-78
2021/01/27 05:29:46;;;;;;;6.85;5.65;;;;;;;2.77;100.00;98965.94;1709740;83;21201;-82
2021/01/27 05:32:59;;;;;;;5.15;4.00;;;;;;;2.84;100.00;98962.63;1711156;83;21741;-79
2021/01/27 05:36:15;;;;;;;6.40;4.17;;;;;;;2.87;100.00;98960.92;1706298;83;21286;-82
2021/01/27 05:39:23;;;;;;;5.10;3.30;;;;;;;2.91;100.00;98958.25;1719544;82;21178;-81
2021/01/27 05:42:38;;;;;;;3.22;2.30;;;;;;;2.91;100.00;98965.01;1728605;82;21327;-80
2021/01/27 05:45:50;;;;;;;5.92;3.95;;;;;;;2.92;100.00;98957.27;1781585;79;21296;-80
2021/01/27 05:48:56;;;;;;;4.53;4.10;;;;;;;2.98;100.00;98956.63;1791155;79;21256;-82
2021/01/27 05:52:04;;;;;;;6.47;5.00;;;;;;;3.03;100.00;98963.23;1736670;81;21622;-80
2021/01/27 05:55:17;;;;;;;9.83;3.52;;;;;;;3.06;100.00;98960.22;1777513;79;21767;-80
2021/01/27 05:58:24;;;;;;;4.80;3.50;;;;;;;3.13;100.00;98958.21;1786342;79;21161;-82
2021/01/27 06:01:47;;;;;;;8.25;3.85;;;;;;;3.17;100.00;98948.27;1787080;79;22115;-80
2021/01/27 06:05:04;;;;;;;7.65;3.80;;;;;;;3.23;100.00;98943.55;1785031;79;21336;-81
2021/01/27 06:08:27;;;;;;;10.75;4.92;;;;;;;3.33;100.00;98935.31;1779479;79;21287;-80
2021/01/27 06:11:33;;;;;;;6.72;3.80;;;;;;;3.42;100.00;98932.14;1786396;79;21153;-82
2021/01/27 06:14:39;;;;;;;7.97;4.45;;;;;;;3.49;100.00;98938.59;1786639;78;22108;-80
2021/01/27 06:17:56;;;;;;;9.38;4.30;;;;;;;3.53;100.00;98938.61;1787727;79;21739;-80
2021/01/27 06:21:16;;;;;;;7.67;4.45;;;;;;;3.59;100.00;98940.64;1709167;81;21278;-82
2021/01/27 06:25:03;;;;;;;7.30;4.60;;;;;;;3.70;100.00;98934.91;1786245;79;21955;-79
2021/01/27 06:29:04;;;;;;;11.20;5.28;;;;;;;3.70;100.00;98934.91;1787764;79;22009;-82
2021/01/27 06:32:30;;;;;;;14.87;5.42;;;;;;;3.83;100.00;98930.38;1761883;79;21527;-80
2021/01/27 06:36:06;;;;;;;12.23;5.72;;;;;;;4.00;100.00;98928.05;1781026;79;21194;-79
2021/01/27 06:39:40;;;;;;;16.93;5.87;;;;;;;4.12;100.00;98923.64;1783469;79;21279;-81
2021/01/27 06:43:03;;;;;;;20.82;7.10;;;;;;;4.21;100.00;98918.56;1768017;79;21578;-80
2021/01/27 06:46:50;;;;;;;12.82;5.40;;;;;;;4.32;100.00;98924.98;1789682;79;22237;-81
2021/01/27 06:50:10;;;;;;;17.87;7.30;;;;;;;4.42;100.00;98924.80;1787946;79;21169;-80
2021/01/27 06:53:41;;;;;;;15.25;6.15;;;;;;;4.50;100.00;98923.45;1784566;79;21460;-81
2021/01/27 06:57:06;;;;;;;12.98;5.40;;;;;;;4.59;100.00;98916.49;1749859;81;21347;-82
2021/01/27 07:00:45;;;;;;;15.48;6.58;;;;;;;4.69;100.00;98919.02;1722843;82;21323;-82
2021/01/27 07:04:02;;;;;;;16.02;6.17;;;;;;;4.78;100.00;98915.27;1783748;79;21319;-82
2021/01/27 07:07:47;;;;;;;16.65;6.55;;;;;;;4.91;99.96;98910.66;1785272;79;21279;-82
2021/01/27 07:11:19;;;;;;;13.18;6.17;;;;;;;4.94;99.40;98905.39;1785678;79;21283;-82
2021/01/27 07:14:38;;;;;;;16.93;5.35;;;;;;;4.89;98.64;98895.08;1748743;79;21350;-81
2021/01/27 07:18:18;;;;;;;13.53;5.83;;;;;;;4.87;98.35;98884.42;1788255;79;21320;-81
2021/01/27 07:21:34;;;;;;;14.55;7.83;;;;;;;4.88;98.24;98888.81;1783410;79;21320;-77
2021/01/27 07:24:46;;;;;;;15.72;7.25;;;;;;;4.93;98.21;98879.32;1786013;79;21340;-80
2021/01/27 07:28:04;;;;;;;18.55;6.80;;;;;;;5.00;98.25;98881.16;1780893;79;21825;-78
2021/01/27 07:31:36;;;;;;;26.02;17.10;;;;;;;5.06;98.23;98872.33;1784068;79;21825;-83
2021/01/27 07:34:51;;;;;;;23.40;8.98;;;;;;;5.18;98.27;98882.80;1781083;79;21217;-82
2021/01/27 07:38:11;;;;;;;18.90;9.13;;;;;;;5.25;98.16;98884.61;1784062;79;21311;-81
2021/01/27 07:41:24;;;;;;;30.55;19.87;;;;;;;5.34;97.98;98886.25;1789645;78;21318;-79
2021/01/27 07:44:44;;;;;;;25.02;13.93;;;;;;;5.40;97.52;98883.34;1776101;79;21890;-80
2021/01/27 07:48:33;;;;;;;20.20;12.43;;;;;;;5.46;97.35;98872.28;1800291;79;21714;-81
2021/01/27 07:52:00;;;;;;;24.92;10.30;;;;;;;5.56;97.12;98871.05;1795847;79;21330;-84
2021/01/27 07:55:18;;;;;;;29.45;19.05;;;;;;;5.58;96.50;98881.72;1801207;79;21346;-82
2021/01/27 07:58:43;;;;;;;22.65;11.45;;;;;;;5.55;96.16;98884.29;1796051;79;21215;-82
2021/01/27 08:02:04;;;;;;;24.82;13.50;;;;;;;5.52;95.93;98884.64;1799476;79;21762;-81
2021/01/27 08:05:15;;;;;;;40.60;23.18;;;;;;;5.53;95.87;98882.77;1803929;79;21263;-82
2021/01/27 08:08:26;;;;;;;39.00;17.27;;;;;;;5.53;95.91;98881.41;1798141;79;21703;-79
2021/01/27 08:11:50;;;;;;;49.05;37.20;;;;;;;5.56;95.85;98890.04;1760861;80;21280;-82
2021/01/27 08:15:18;;;;;;;26.42;18.37;;;;;;;5.62;95.83;98896.61;1725346;81;21303;-79
2021/01/27 08:18:35;;;;;;;25.72;15.13;;;;;;;5.67;95.83;98905.05;1742515;81;21754;-82
2021/01/27 08:22:03;;;;;;;24.30;11.55;;;;;;;5.78;95.82;98920.07;1730929;82;21342;-80
2021/01/27 08:25:10;;;;;;;21.37;11.97;;;;;;;5.85;95.73;98921.90;1753476;80;21686;-81
2021/01/27 08:28:49;;;;;;;23.85;12.90;;;;;;;5.91;95.63;98928.47;1731990;80;21166;-80
2021/01/27 08:31:59;;;;;;;25.32;10.90;;;;;;;5.96;95.48;98936.11;1759478;80;21165;-80
2021/01/27 08:35:16;;;;;;;26.77;11.70;;;;;;;5.96;95.21;98933.39;1752315;80;21273;-80
2021/01/27 08:38:34;;;;;;;29.12;12.10;;;;;;;6.01;95.21;98941.31;1763584;79;21319;-79
2021/01/27 08:42:10;;;;;;;33.75;13.60;;;;;;;6.04;95.15;98929.27;1762067;79;21280;-78
2021/01/27 08:45:32;;;;;;;26.45;13.15;;;;;;;6.03;95.04;98927.07;1782598;78;21755;-80
2021/01/27 08:48:54;;;;;;;31.00;13.98;;;;;;;6.02;95.05;98932.66;1792966;78;21192;-81
2021/01/27 08:51:59;;;;;;;32.65;13.83;;;;;;;6.02;95.12;98931.30;1793533;78;21154;-82
2021/01/27 08:55:05;;;;;;;48.00;21.17;;;;;;;6.05;95.22;98918.73;1786845;78;21613;-82
2021/01/27 08:58:33;;;;;;;42.83;19.05;;;;;;;6.04;95.22;98907.03;1790159;78;21908;-81
2021/01/27 09:01:42;;;;;;;39.00;18.35;;;;;;;6.07;95.34;98897.67;1788017;78;21723;-81
2021/01/27 09:04:48;;;;;;;47.67;20.00;;;;;;;6.09;95.49;98898.34;1796834;78;21350;-80
2021/01/27 09:08:21;;;;;;;49.65;20.80;;;;;;;6.09;95.71;98890.20;1792246;78;21193;-81
2021/01/27 09:11:27;;;;;;;53.42;21.25;;;;;;;6.12;96.01;98877.12;1781616;78;21302;-82
2021/01/27 09:14:33;;;;;;;46.45;23.60;;;;;;;6.20;96.34;98866.68;1789485;79;21223;-83
2021/01/27 09:17:38;;;;;;;50.25;20.88;;;;;;;6.28;96.66;98865.26;1787738;79;21288;-78
2021/01/27 09:20:46;;;;;;;48.85;20.10;;;;;;;6.37;96.91;98865.52;1784004;79;21174;-79
2021/01/27 09:24:12;;;;;;;40.03;20.08;;;;;;;6.40;97.15;98854.30;1787262;79;21291;-80
2021/01/27 09:27:33;;;;;;;40.55;19.42;;;;;;;6.45;97.35;98854.25;1789865;79;21288;-79
2021/01/27 09:30:38;;;;;;;41.77;26.42;;;;;;;6.45;97.47;98846.95;1785693;79;21283;-78
2021/01/27 09:33:58;;;;;;;52.53;33.98;;;;;;;6.53;97.66;98838.69;1785976;79;21901;-78
2021/01/27 09:37:16;;;;;;;48.75;31.57;;;;;;;6.57;97.58;98840.52;1788004;79;21275;-79
2021/01/27 09:40:29;;;;;;;46.55;27.85;;;;;;;6.65;97.61;98845.88;1787710;79;21338;-79
2021/01/27 09:43:36;;;;;;;64.45;39.05;;;;;;;6.73;97.58;98838.12;1781248;79;21295;-79
2021/01/27 09:46:44;;;;;;;43.80;19.82;;;;;;;6.74;97.52;98835.25;1769576;79;21738;-78
2021/01/27 09:50:01;;;;;;;32.13;16.87;;;;;;;6.80;97.51;98839.92;1788295;79;21255;-78
2021/01/27 09:53:10;;;;;;;32.98;15.53;;;;;;;6.86;97.54;98844.59;1784132;79;21193;-79
2021/01/27 09:56:16;;;;;;;30.35;12.95;;;;;;;6.91;97.60;98847.59;1774466;79;21685;-80
2021/01/27 09:59:23;;;;;;;34.33;15.28;;;;;;;6.98;97.76;98844.14;1792747;79;21276;-79
2021/01/27 10:02:39;;;;;;;30.45;13.30;;;;;;;6.99;97.76;98837.14;1787139;79;21968;-78
2021/01/27 10:05:47;;;;;;;40.50;21.35;;;;;;;6.98;97.84;98827.31;1788899;79;21228;-79
2021/01/27 10:08:56;;;;;;;62.62;35.48;;;;;;;7.04;98.07;98820.27;1785617;79;21810;-78
2021/01/27 10:12:18;;;;;;;67.25;32.25;;;;;;;7.10;98.31;98818.97;1785884;79;21233;-79
2021/01/27 10:15:38;;;;;;;88.22;36.65;;;;;;;7.18;98.30;98818.03;1785237;79;21756;-79
2021/01/27 10:18:42;;;;;;;80.10;42.00;;;;;;;7.23;98.03;98818.30;1784964;79;21791;-78
2021/01/27 10:21:55;;;;;;;78.30;38.42;;;;;;;7.27;97.63;98816.05;1789973;79;21340;-79
2021/01/27 10:25:03;;;;;;;75.52;38.35;;;;;;;7.36;97.39;98821.70;1788433;79;21303;-80
2021/01/27 10:28:21;;;;;;;72.32;26.97;;;;;;;7.40;97.08;98821.65;1781914;79;21674;-80
2021/01/27 10:31:44;;;;;;;65.20;27.10;;;;;;;7.42;97.05;98817.68;1787642;79;21175;-79
2021/01/27 10:34:54;;;;;;;75.12;34.88;;;;;;;7.41;97.19;98811.92;1786004;79;21908;-86
2021/01/27 10:38:17;;;;;;;62.62;30.72;;;;;;;7.42;97.44;98807.32;1787602;79;21276;-78
2021/01/27 10:41:28;;;;;;;88.50;42.55;;;;;;;7.41;97.68;98797.48;1783418;79;21216;-78
2021/01/27 10:44:41;;;;;;;94.75;55.12;;;;;;;7.40;97.82;98787.13;1782974;79;21342;-80
2021/01/27 10:47:47;;;;;;;68.72;33.48;;;;;;;7.42;97.91;98791.00;1784704;79;21291;-79
2021/01/27 10:51:14;;;;;;;72.62;37.05;;;;;;;7.42;97.99;98785.55;1748331;80;21730;-79
2021/01/27 10:55:19;;;;;;;81.53;42.67;;;;;;;7.41;98.08;98778.44;1785249;79;21327;-82
2021/01/27 10:58:35;;;;;;;90.70;49.48;;;;;;;7.39;98.22;98780.00;1746148;79;21782;-83
2021/01/27 11:01:52;;;;;;;77.47;44.25;;;;;;;7.35;98.51;98767.82;1785687;79;21420;-79
2021/01/27 11:05:06;;;;;;;118.00;77.42;;;;;;;7.38;98.81;98766.05;1781209;79;21188;-78
2021/01/27 11:11:52;;;;;;;97.27;44.50;;;;;;;7.33;99.21;98752.19;1748210;80;21204;-85
2021/01/27 11:15:04;;;;;;;98.70;40.63;;;;;;;7.34;99.60;98746.23;1743722;80;21321;-85
2021/01/27 11:18:10;;;;;;;80.60;43.13;;;;;;;7.34;99.94;98740.30;1744383;80;21309;-84
2021/01/27 11:21:18;;;;;;;57.03;28.70;;;;;;;7.35;100.00;98737.90;1736892;80;21301;-84
2021/01/27 11:24:25;;;;;;;60.43;34.67;;;;;;;7.39;100.00;98737.84;1737086;80;21376;-80
2021/01/27 11:27:32;;;;;;;66.00;43.63;;;;;;;7.43;100.00;98726.90;1719749;80;21290;-80
2021/01/27 11:30:40;;;;;;;68.67;41.55;;;;;;;7.46;100.00;98725.65;1716285;80;21566;-83
2021/01/27 11:33:47;;;;;;;43.87;19.60;;;;;;;7.46;100.00;98718.84;1734836;80;21866;-83
2021/01/27 11:36:55;;;;;;;71.70;36.00;;;;;;;7.45;100.00;98710.38;1743016;80;21286;-87
2021/01/27 11:40:02;;;;;;;42.90;20.40;;;;;;;7.47;100.00;98700.12;1733642;80;21333;-82
2021/01/27 11:43:12;;;;;;;43.80;24.47;;;;;;;7.48;100.00;98692.80;1687937;83;21250;-82
2021/01/27 11:46:21;;;;;;;47.90;26.37;;;;;;;7.52;100.00;98687.29;1683891;83;21365;-87
2021/01/27 11:49:34;;;;;;;63.02;49.65;;;;;;;7.57;100.00;98687.54;1667274;84;21354;-81
2021/01/27 11:52:44;;;;;;;35.73;24.05;;;;;;;7.65;100.00;98690.13;1676701;83;21330;-81
2021/01/27 11:55:57;;;;;;;25.60;16.75;;;;;;;7.65;100.00;98699.13;1682658;83;21264;-85
2021/01/27 11:59:06;;;;;;;37.78;22.37;;;;;;;7.71;100.00;98700.73;1680864;83;21227;-80
2021/01/27 12:02:15;;;;;;;34.55;17.48;;;;;;;7.75;100.00;98700.16;1682400;83;21176;-86
2021/01/27 12:05:26;;;;;;;66.47;38.25;;;;;;;7.78;100.00;98694.32;1681073;83;21384;-85
2021/01/27 12:08:44;;;;;;;58.35;45.28;;;;;;;7.79;100.00;98691.91;1695198;82;21318;-85
2021/01/27 12:12:12;;;;;;;48.87;29.63;;;;;;;7.78;100.00;98677.99;1677752;84;21215;-83
2021/01/27 12:15:28;;;;;;;42.83;23.32;;;;;;;7.78;100.00;98666.27;1694081;83;22011;-82
2021/01/27 12:18:53;;;;;;;56.02;46.15;;;;;;;7.79;100.00;98666.05;1679258;83;21378;-85
2021/01/27 12:22:06;;;;;;;46.00;28.90;;;;;;;7.81;100.00;98660.41;1667206;83;21216;-87
2021/01/27 12:25:13;;;;;;;21.65;11.38;;;;;;;7.78;100.00;98652.14;1674399;83;21205;-85
2021/01/27 12:28:19;;;;;;;24.43;11.03;;;;;;;7.79;100.00;98657.89;1680542;83;21665;-83
2021/01/27 12:31:24;;;;;;;20.60;7.03;;;;;;;7.82;100.00;98663.47;1680204;83;21563;-81
2021/01/27 12:34:32;;;;;;;25.12;7.62;;;;;;;7.87;100.00;98648.22;1674556;83;21331;-84
2021/01/27 12:37:37;;;;;;;24.05;7.03;;;;;;;7.94;100.00;98649.09;1656787;83;21222;-84
2021/01/27 12:40:44;;;;;;;21.85;8.03;;;;;;;8.00;100.00;98647.96;1673106;83;21796;-84
2021/01/27 12:43:50;;;;;;;33.05;21.27;;;;;;;8.05;100.00;98637.34;1673588;83;21874;-81
2021/01/27 12:46:58;;;;;;;22.40;9.53;;;;;;;8.11;100.00;98658.31;1682003;83;21244;-82
2021/01/27 12:50:04;;;;;;;41.95;24.95;;;;;;;8.08;100.00;98666.35;1670939;83;21173;-83
2021/01/27 12:53:10;;;;;;;50.12;37.98;;;;;;;8.04;100.00;98672.39;1680569;83;21317;-83
2021/01/27 12:56:16;;;;;;;63.08;46.83;;;;;;;8.02;99.86;98671.77;1679697;82;21232;-85
2021/01/27 12:59:22;;;;;;;51.45;36.70;;;;;;;7.99;99.62;98673.52;1679405;83;21677;-83
2021/01/27 13:02:27;;;;;;;55.40;44.42;;;;;;;7.97;99.51;98659.27;1681409;82;21185;-83
2021/01/27 13:05:32;;;;;;;71.95;55.73;;;;;;;7.92;99.32;98656.62;1687786;83;21309;-82
2021/01/27 13:08:38;;;;;;;45.75;33.80;;;;;;;7.90;99.20;98662.80;1683421;82;21573;-84
2021/01/27 13:11:43;;;;;;;36.53;22.87;;;;;;;7.87;99.09;98652.30;1666416;84;21286;-83
2021/01/27 13:14:48;;;;;;;130.50;112.20;;;;;;;7.82;98.91;98646.62;1686072;83;21933;-84
2021/01/27 13:17:57;;;;;;;53.68;37.80;;;;;;;7.79;98.83;98652.97;1677677;83;21340;-82
2021/01/27 13:21:04;;;;;;;53.65;41.73;;;;;;;7.76;98.72;98643.31;1680241;82;21756;-84
2021/01/27 13:24:09;;;;;;;81.15;65.17;;;;;;;7.77;98.58;98647.73;1683201;82;21373;-85
2021/01/27 13:27:16;;;;;;;63.50;49.00;;;;;;;7.76;98.37;98638.39;1678338;83;21901;-78
2021/01/27 13:30:23;;;;;;;61.85;45.55;;;;;;;7.74;98.11;98629.07;1697888;82;21366;-79
2021/01/27 13:33:29;;;;;;;36.03;20.97;;;;;;;7.73;97.85;98623.31;1681015;82;21333;-80
2021/01/27 13:36:35;;;;;;;38.95;15.75;;;;;;;7.72;97.45;98624.36;1682981;84;21286;-80
2021/01/27 13:39:41;;;;;;;25.68;11.83;;;;;;;7.73;97.27;98624.67;1683300;82;21357;-81
2021/01/27 13:42:46;;;;;;;33.05;15.35;;;;;;;7.73;97.02;98619.23;1682274;83;22062;-79
2021/01/27 13:45:52;;;;;;;27.93;7.42;;;;;;;7.79;97.05;98614.34;1685313;84;21832;-79
2021/01/27 13:48:58;;;;;;;19.85;7.75;;;;;;;7.89;97.00;98601.20;1687990;82;21318;-80
2021/01/27 13:52:04;;;;;;;18.62;6.37;;;;;;;7.95;96.60;98598.20;1683836;84;21278;-80
2021/01/27 13:55:12;;;;;;;17.02;6.22;;;;;;;7.99;96.12;98581.78;1703581;82;21275;-80
2021/01/27 13:58:17;;;;;;;21.12;6.85;;;;;;;8.03;95.75;98580.86;1684251;83;21319;-80
2021/01/27 14:01:24;;;;;;;27.95;7.03;;;;;;;8.04;95.35;98577.09;1703223;82;21338;-80
2021/01/27 14:04:31;;;;;;;16.57;6.15;;;;;;;8.06;94.99;98577.75;1670513;83;21810;-80
2021/01/27 14:07:37;;;;;;;22.17;7.35;;;;;;;8.09;94.77;98577.33;1678470;85;21814;-81
2021/01/27 14:10:42;;;;;;;24.43;6.42;;;;;;;8.09;94.36;98574.59;1705763;82;21292;-81
2021/01/27 14:13:50;;;;;;;22.13;6.45;;;;;;;8.07;93.96;98567.17;1677190;83;21286;-80
2021/01/27 14:16:56;;;;;;;20.32;6.12;;;;;;;8.03;93.60;98568.09;1678174;85;21737;-81
2021/01/27 14:20:03;;;;;;;21.50;7.12;;;;;;;7.99;93.42;98563.25;1692106;82;21983;-81
2021/01/27 14:23:10;;;;;;;18.35;6.20;;;;;;;7.93;93.35;98570.34;1674972;84;21347;-80
2021/01/27 14:26:16;;;;;;;20.48;6.28;;;;;;;7.91;93.32;98561.03;1683772;83;21177;-80
2021/01/27 14:29:22;;;;;;;21.77;7.00;;;;;;;7.87;93.18;98557.55;1689400;83;21310;-80
2021/01/27 14:32:29;;;;;;;14.00;6.55;;;;;;;7.82;93.17;98549.98;1687533;84;21319;-79
2021/01/27 14:35:36;;;;;;;18.20;6.10;;;;;;;7.76;93.24;98541.24;1686297;83;21879;-80
2021/01/27 14:38:42;;;;;;;32.45;24.98;;;;;;;7.72;93.28;98537.27;1685356;83;21346;-80
2021/01/27 14:41:48;;;;;;;24.02;8.90;;;;;;;7.64;93.26;98534.19;1688860;83;21382;-80
2021/01/27 14:44:54;;;;;;;17.10;8.08;;;;;;;7.60;93.40;98527.98;1686987;83;21972;-79
2021/01/27 14:47:58;;;;;;;41.58;23.18;;;;;;;7.55;93.48;98529.10;1685448;83;21455;-79
2021/01/27 14:51:06;;;;;;;26.77;13.93;;;;;;;7.51;93.59;98520.50;1688520;84;21313;-79
2021/01/27 14:54:13;;;;;;;28.15;15.55;;;;;;;7.46;93.64;98522.98;1654959;86;21268;-80
2021/01/27 14:57:19;;;;;;;54.83;29.10;;;;;;;7.41;93.82;98518.13;1663454;86;21746;-80
2021/01/27 15:00:27;;;;;;;25.97;10.43;;;;;;;7.38;93.93;98509.00;1691316;84;21373;-80
2021/01/27 15:03:32;;;;;;;34.43;21.25;;;;;;;7.38;93.89;98493.20;1694209;83;21321;-80
2021/01/27 15:06:37;;;;;;;22.35;11.38;;;;;;;7.39;93.76;98492.19;1696698;84;21292;-80
2021/01/27 15:09:43;;;;;;;25.20;15.88;;;;;;;7.38;93.45;98489.96;1697632;84;21199;-80
2021/01/27 15:12:50;;;;;;;26.42;10.43;;;;;;;7.35;93.08;98491.74;1697723;83;21254;-80
2021/01/27 15:15:57;;;;;;;44.58;32.70;;;;;;;7.33;92.76;98488.36;1667872;86;21333;-80
2021/01/27 15:19:04;;;;;;;30.37;16.67;;;;;;;7.34;92.49;98483.77;1667742;84;21891;-80
2021/01/27 15:22:10;;;;;;;49.15;34.55;;;;;;;7.32;92.34;98479.89;1668904;84;21195;-80
2021/01/27 15:25:17;;;;;;;26.33;16.23;;;;;;;7.33;92.15;98476.65;1669331;86;21286;-80
2021/01/27 15:28:24;;;;;;;30.43;12.05;;;;;;;7.33;91.71;98477.48;1668854;84;21199;-79
2021/01/27 15:31:29;;;;;;;32.70;28.73;;;;;;;7.32;91.40;98473.62;1668393;86;21821;-80
2021/01/27 15:34:35;;;;;;;20.50;14.15;;;;;;;7.30;90.99;98472.99;1669353;86;21824;-80
2021/01/27 15:37:40;;;;;;;26.75;9.55;;;;;;;7.30;90.53;98477.91;1669177;84;21790;-80
2021/01/27 15:40:48;;;;;;;26.48;12.65;;;;;;;7.28;89.91;98477.25;1669535;86;21176;-80
2021/01/27 15:43:55;;;;;;;21.93;11.18;;;;;;;7.26;89.18;98471.18;1668164;84;21255;-80
2021/01/27 15:47:02;;;;;;;22.48;10.53;;;;;;;7.25;88.44;98459.99;1668155;86;21385;-80
2021/01/27 15:50:07;;;;;;;23.85;12.90;;;;;;;7.22;87.53;98460.38;1642931;86;21313;-80
2021/01/27 15:53:13;;;;;;;24.85;14.35;;;;;;;7.19;87.01;98455.33;1664197;84;21919;-80
2021/01/27 15:56:19;;;;;;;33.30;20.65;;;;;;;7.15;86.56;98447.25;1664237;86;21290;-80
2021/01/27 15:59:25;;;;;;;24.77;17.12;;;;;;;7.08;86.20;98445.02;1664068;84;21330;-80